Time;durP1;ratioP1;P1;durP2;ratioP2;P2;SDS_P1;SDS_P2;PMS_P1;PMS_P2;Temp;Humidity;BMP_temperature;BMP_pressure;BME280_temperature;BME280_humidity;BME280_pressure;Samples;Min_cycle;Max_cycle;Signal;HPM_P1;HPM_P2
2023/05/20 00:00:32;;;;;;;12.90;5.70;;;;;;;12.06;100.00;102380.28;4974234;28;20046;-74
2023/05/20 00:02:59;;;;;;;18.25;6.35;;;;;;;11.99;100.00;102377.00;4985693;28;20130;-73
2023/05/20 00:05:25;;;;;;;17.10;6.35;;;;;;;11.94;100.00;102373.66;4971776;28;20031;-74
2023/05/20 00:07:50;;;;;;;12.38;5.93;;;;;;;11.96;100.00;102377.16;4966932;28;20050;-74
2023/05/20 00:10:19;;;;;;;17.25;6.47;;;;;;;12.12;100.00;102374.66;4978566;28;20049;-73
2023/05/20 00:12:44;;;;;;;11.43;5.38;;;;;;;12.21;100.00;102378.72;4967456;28;20031;-73
2023/05/20 00:15:13;;;;;;;15.52;6.25;;;;;;;12.13;100.00;102377.25;4973331;28;20039;-73
2023/05/20 00:17:39;;;;;;;14.23;6.10;;;;;;;12.18;100.00;102375.22;4972051;28;20097;-74
2023/05/20 00:20:06;;;;;;;11.65;5.25;;;;;;;12.32;100.00;102368.41;4980649;28;20109;-73
2023/05/20 00:22:31;;;;;;;13.55;5.78;;;;;;;12.19;100.00;102376.97;4972468;28;20082;-74
2023/05/20 00:25:00;;;;;;;14.70;5.93;;;;;;;12.30;100.00;102373.81;4981463;28;20051;-74
2023/05/20 00:27:26;;;;;;;14.70;6.30;;;;;;;12.27;100.00;102373.09;4973556;28;20046;-74
2023/05/20 00:29:51;;;;;;;15.73;6.30;;;;;;;12.20;100.00;102375.19;4967553;28;20042;-74
2023/05/20 00:32:18;;;;;;;12.23;5.90;;;;;;;12.18;100.00;102372.56;4960953;28;20055;-72
2023/05/20 00:34:44;;;;;;;15.18;6.07;;;;;;;12.21;100.00;102368.03;4966014;28;20041;-74
2023/05/20 00:37:09;;;;;;;12.25;5.57;;;;;;;12.06;100.00;102365.09;4980653;28;20035;-71
2023/05/20 00:39:35;;;;;;;14.82;6.15;;;;;;;12.06;100.00;102367.78;4966349;28;20134;-74
2023/05/20 00:42:02;;;;;;;12.25;6.20;;;;;;;12.12;100.00;102363.97;4966084;28;20042;-74
2023/05/20 00:44:28;;;;;;;16.25;5.95;;;;;;;12.02;100.00;102371.53;4981701;28;20045;-73
2023/05/20 00:46:57;;;;;;;13.57;6.93;;;;;;;12.12;100.00;102367.50;4963882;28;20070;-72
2023/05/20 00:49:23;;;;;;;16.35;5.90;;;;;;;12.01;100.00;102366.25;4971166;28;20058;-72
2023/05/20 00:51:49;;;;;;;18.48;6.40;;;;;;;12.01;100.00;102360.91;4981596;28;20046;-73
2023/05/20 00:54:15;;;;;;;13.10;5.95;;;;;;;12.01;100.00;102368.94;4982334;28;20042;-73
2023/05/20 00:56:42;;;;;;;18.10;6.78;;;;;;;11.97;100.00;102367.31;4983696;28;20046;-74
2023/05/20 00:59:08;;;;;;;22.98;7.07;;;;;;;11.93;100.00;102361.22;4968351;28;20067;-72
2023/05/20 01:01:37;;;;;;;15.05;6.30;;;;;;;12.01;100.00;102355.56;4972938;28;20074;-72
2023/05/20 01:04:03;;;;;;;13.30;6.93;;;;;;;11.77;100.00;102362.81;4978261;28;20023;-73
2023/05/20 01:06:32;;;;;;;13.88;6.20;;;;;;;11.88;100.00;102360.56;4963753;28;20039;-71
2023/05/20 01:09:00;;;;;;;12.77;6.60;;;;;;;11.98;100.00;102353.00;4958287;28;20039;-73
2023/05/20 01:11:34;;;;;;;18.70;7.82;;;;;;;11.91;100.00;102353.28;4964979;28;20066;-72
2023/05/20 01:14:05;;;;;;;14.23;6.68;;;;;;;11.81;100.00;102359.94;4975950;28;20101;-73
2023/05/20 01:16:32;;;;;;;17.98;7.38;;;;;;;11.78;100.00;102364.56;4984065;28;20031;-73
2023/05/20 01:19:02;;;;;;;13.65;7.05;;;;;;;11.73;100.00;102355.88;4979470;28;20039;-72
2023/05/20 01:21:35;;;;;;;20.48;7.75;;;;;;;11.84;100.00;102359.81;4972783;28;20050;-72
2023/05/20 01:24:02;;;;;;;16.13;7.15;;;;;;;11.73;100.00;102354.06;4968793;28;20273;-72
2023/05/20 01:26:28;;;;;;;18.55;7.85;;;;;;;11.71;100.00;102358.63;4949525;28;20035;-73
2023/05/20 01:28:56;;;;;;;11.63;7.32;;;;;;;11.57;100.00;102358.34;4968102;28;20039;-72
2023/05/20 01:31:25;;;;;;;18.77;7.20;;;;;;;11.72;100.00;102360.34;4966888;28;20043;-73
2023/05/20 01:33:55;;;;;;;17.58;6.90;;;;;;;11.75;100.00;102351.34;4973558;28;20093;-72
2023/05/20 01:36:21;;;;;;;16.55;8.40;;;;;;;11.63;100.00;102348.25;4971659;28;20031;-72
2023/05/20 01:38:49;;;;;;;18.58;6.88;;;;;;;11.61;100.00;102349.28;4966580;28;20049;-72
2023/05/20 01:41:17;;;;;;;17.50;7.45;;;;;;;11.54;100.00;102343.31;4968916;28;20051;-72
2023/05/20 01:43:44;;;;;;;16.48;7.78;;;;;;;11.68;100.00;102335.56;4981887;28;20038;-74
2023/05/20 01:46:09;;;;;;;17.50;7.18;;;;;;;11.70;100.00;102343.53;4979042;28;20043;-72
2023/05/20 01:48:37;;;;;;;15.43;7.57;;;;;;;11.66;100.00;102348.13;4990832;28;20095;-74
2023/05/20 01:51:05;;;;;;;19.90;8.52;;;;;;;11.70;100.00;102346.19;4986503;28;20679;-74
2023/05/20 01:53:31;;;;;;;18.60;8.07;;;;;;;11.62;100.00;102349.19;4981753;28;20035;-74
2023/05/20 01:55:56;;;;;;;13.90;7.75;;;;;;;11.60;100.00;102348.41;4976459;28;20022;-74
2023/05/20 01:58:22;;;;;;;14.38;7.97;;;;;;;11.80;100.00;102338.66;4976783;28;20039;-74
2023/05/20 02:00:49;;;;;;;19.77;8.50;;;;;;;11.58;100.00;102341.38;4991439;28;20082;-73
2023/05/20 02:03:15;;;;;;;17.38;8.75;;;;;;;11.76;100.00;102329.88;4971961;28;20369;-71
2023/05/20 02:05:40;;;;;;;15.93;7.97;;;;;;;11.73;100.00;102330.00;4969517;28;20432;-72
2023/05/20 02:08:06;;;;;;;16.75;7.90;;;;;;;11.70;100.00;102331.94;4984027;28;20555;-73
2023/05/20 02:10:32;;;;;;;16.00;7.28;;;;;;;11.67;100.00;102333.81;4958669;28;20467;-73
2023/05/20 02:12:58;;;;;;;16.98;7.90;;;;;;;11.61;100.00;102338.59;4954497;28;20491;-74
2023/05/20 02:15:24;;;;;;;19.35;7.45;;;;;;;11.74;100.00;102337.09;4971810;28;20038;-74
2023/05/20 02:17:50;;;;;;;12.65;7.10;;;;;;;11.67;100.00;102335.63;4981032;28;20050;-73
2023/05/20 02:20:18;;;;;;;14.32;7.68;;;;;;;11.67;100.00;102332.97;4984633;28;20097;-73
2023/05/20 02:22:43;;;;;;;16.50;7.82;;;;;;;11.66;100.00;102332.09;4961863;28;20178;-73
2023/05/20 02:25:09;;;;;;;15.52;7.03;;;;;;;11.79;100.00;102331.53;4953941;28;20142;-73
2023/05/20 02:27:35;;;;;;;19.50;8.70;;;;;;;11.66;100.00;102318.75;4954009;28;20037;-73
2023/05/20 02:30:01;;;;;;;18.40;7.57;;;;;;;11.59;100.00;102321.72;4965960;28;20039;-72
2023/05/20 02:32:27;;;;;;;18.15;7.63;;;;;;;11.54;100.00;102318.38;4973200;28;20027;-73
2023/05/20 02:34:56;;;;;;;13.63;8.15;;;;;;;11.28;100.00;102316.84;4984119;28;20118;-73
2023/05/20 02:37:22;;;;;;;16.80;7.97;;;;;;;11.36;100.00;102318.28;4984482;28;20140;-74
2023/05/20 02:39:47;;;;;;;12.52;8.18;;;;;;;11.24;100.00;102320.59;4965500;28;20818;-74
2023/05/20 02:42:14;;;;;;;17.50;8.98;;;;;;;11.39;100.00;102319.91;4978081;28;21128;-74
2023/05/20 02:44:40;;;;;;;15.75;7.03;;;;;;;11.31;100.00;102316.72;4983716;28;20031;-72
2023/05/20 02:47:06;;;;;;;14.38;7.53;;;;;;;11.17;100.00;102319.13;4952844;28;20362;-74
2023/05/20 02:49:32;;;;;;;9.80;6.90;;;;;;;11.14;100.00;102323.66;4963145;28;20473;-72
2023/05/20 02:51:58;;;;;;;15.63;7.88;;;;;;;11.31;100.00;102322.06;4960509;28;20559;-73
2023/05/20 02:54:23;;;;;;;20.50;7.75;;;;;;;11.34;100.00;102316.59;4964558;28;20041;-73
2023/05/20 02:56:49;;;;;;;16.65;8.23;;;;;;;11.24;100.00;102310.75;4958002;28;20553;-74
2023/05/20 02:59:15;;;;;;;15.05;7.50;;;;;;;11.24;100.00;102324.13;4963694;28;20551;-75
2023/05/20 03:01:40;;;;;;;19.13;7.00;;;;;;;11.18;100.00;102315.50;4975596;28;20537;-73
2023/05/20 03:04:07;;;;;;;13.88;7.38;;;;;;;11.22;100.00;102312.66;4985423;28;20575;-73
2023/05/20 03:06:33;;;;;;;13.90;7.32;;;;;;;11.16;100.00;102307.56;4971382;28;20047;-75
2023/05/20 03:09:00;;;;;;;20.05;7.57;;;;;;;10.86;100.00;102304.38;4970297;28;20027;-74
2023/05/20 03:11:25;;;;;;;14.07;8.30;;;;;;;11.01;100.00;102311.75;4958728;28;20195;-75
2023/05/20 03:13:51;;;;;;;15.45;7.82;;;;;;;10.97;100.00;102312.81;4982586;28;20528;-74
2023/05/20 03:16:17;;;;;;;15.60;7.75;;;;;;;10.90;100.00;102314.00;4980906;28;20034;-73
2023/05/20 03:18:45;;;;;;;16.08;8.02;;;;;;;10.87;100.00;102314.97;4981633;28;20110;-74
2023/05/20 03:21:12;;;;;;;15.65;7.53;;;;;;;10.89;100.00;102315.81;4980924;28;20086;-74
2023/05/20 03:23:37;;;;;;;16.25;7.88;;;;;;;10.87;100.00;102309.66;4963623;28;20513;-73
2023/05/20 03:26:06;;;;;;;11.85;7.03;;;;;;;10.92;100.00;102320.13;4978543;28;20027;-73
2023/05/20 03:28:35;;;;;;;13.52;8.00;;;;;;;10.97;100.00;102311.94;4973409;28;20045;-74
2023/05/20 03:31:01;;;;;;;14.68;7.57;;;;;;;10.85;100.00;102318.66;4962173;28;20038;-74
2023/05/20 03:33:28;;;;;;;19.40;8.65;;;;;;;10.81;100.00;102320.56;4974337;28;20107;-74
2023/05/20 03:35:54;;;;;;;13.15;7.35;;;;;;;10.82;100.00;102322.31;4968138;28;20157;-74
2023/05/20 03:38:20;;;;;;;14.38;7.72;;;;;;;10.85;100.00;102321.31;4966238;28;20035;-74
2023/05/20 03:40:46;;;;;;;16.05;7.43;;;;;;;10.64;100.00;102331.03;4959716;28;20654;-74
2023/05/20 03:43:12;;;;;;;10.85;7.60;;;;;;;10.65;100.00;102323.94;4969252;28;20061;-71
2023/05/20 03:45:38;;;;;;;15.98;7.80;;;;;;;10.79;100.00;102319.78;4961999;28;20043;-74
2023/05/20 03:48:06;;;;;;;14.95;7.80;;;;;;;10.54;100.00;102329.66;4973217;28;20047;-74
2023/05/20 03:50:35;;;;;;;13.52;7.85;;;;;;;10.52;100.00;102328.88;4961311;28;20027;-74
2023/05/20 03:53:00;;;;;;;18.67;8.20;;;;;;;10.68;100.00;102319.31;4984355;28;20280;-74
2023/05/20 03:55:32;;;;;;;14.60;7.40;;;;;;;10.53;100.00;102320.78;4968821;28;20118;-73
2023/05/20 03:57:59;;;;;;;14.52;7.18;;;;;;;10.71;100.00;102316.53;4971637;28;20046;-73
2023/05/20 04:00:25;;;;;;;18.98;7.82;;;;;;;10.79;100.00;102326.88;4986680;28;20031;-73
2023/05/20 04:02:50;;;;;;;14.75;7.70;;;;;;;10.81;100.00;102325.03;4964023;28;20944;-74
2023/05/20 04:05:18;;;;;;;14.25;7.63;;;;;;;10.91;100.00;102322.88;4966555;28;20063;-74
2023/05/20 04:07:45;;;;;;;13.75;7.28;;;;;;;11.23;100.00;102330.41;4981242;28;20035;-74
2023/05/20 04:10:12;;;;;;;17.95;8.30;;;;;;;11.11;100.00;102317.56;4977375;28;20035;-73
2023/05/20 04:12:37;;;;;;;12.75;7.65;;;;;;;11.50;100.00;102327.50;4960501;28;20042;-74
2023/05/20 04:15:07;;;;;;;16.52;7.53;;;;;;;11.61;100.00;102323.41;4958650;28;20348;-74
2023/05/20 04:17:47;;;;;;;19.02;7.20;;;;;;;11.71;100.00;102326.56;4964362;28;20552;-74
2023/05/20 04:20:13;;;;;;;16.92;6.50;;;;;;;11.89;100.00;102323.06;4956308;28;20042;-73
2023/05/20 04:22:38;;;;;;;14.77;6.85;;;;;;;12.11;100.00;102324.78;4965719;28;20039;-74
2023/05/20 04:25:06;;;;;;;17.67;7.32;;;;;;;12.36;100.00;102320.03;4979605;28;20754;-74
2023/05/20 04:27:32;;;;;;;10.57;6.65;;;;;;;12.74;100.00;102325.34;4968765;28;20035;-74
2023/05/20 04:30:01;;;;;;;14.27;7.35;;;;;;;12.77;100.00;102324.34;4981953;28;21104;-74
2023/05/20 04:32:33;;;;;;;10.93;6.60;;;;;;;12.47;100.00;102326.69;4948991;28;20045;-73
2023/05/20 04:35:10;;;;;;;10.60;6.32;;;;;;;12.55;100.00;102327.16;4970199;28;20043;-74
2023/05/20 04:37:38;;;;;;;9.57;6.43;;;;;;;12.54;100.00;102325.44;4986131;28;20059;-75
2023/05/20 04:40:08;;;;;;;11.30;6.28;;;;;;;13.21;100.00;102327.50;4986908;28;20039;-74
2023/05/20 04:42:36;;;;;;;12.48;5.97;;;;;;;13.40;100.00;102324.75;4970210;28;20043;-74
2023/05/20 04:45:04;;;;;;;10.45;6.00;;;;;;;13.65;100.00;102324.34;4971339;28;20073;-74
2023/05/20 04:47:37;;;;;;;12.73;5.93;;;;;;;14.08;100.00;102322.06;4966462;28;20134;-74
2023/05/20 04:50:12;;;;;;;8.55;5.93;;;;;;;14.90;96.84;102306.69;4981970;28;20911;-74
2023/05/20 04:52:42;;;;;;;10.18;5.70;;;;;;;14.94;94.76;102305.56;4971086;28;20065;-74
2023/05/20 04:55:09;;;;;;;8.65;5.28;;;;;;;14.73;93.94;102321.09;4964256;28;20061;-74
2023/05/20 04:57:40;;;;;;;13.63;5.78;;;;;;;15.35;91.25;102314.81;4970071;28;20039;-74
2023/05/20 05:00:09;;;;;;;7.93;5.25;;;;;;;14.88;92.77;102310.44;4968283;28;20993;-70
2023/05/20 05:02:36;;;;;;;10.77;5.63;;;;;;;14.79;91.36;102314.50;4980880;28;20050;-74
2023/05/20 05:05:02;;;;;;;12.77;5.32;;;;;;;15.52;90.12;102315.56;4978622;28;20595;-74
2023/05/20 05:07:27;;;;;;;10.40;5.45;;;;;;;14.97;91.15;102313.44;4963592;28;20035;-73
2023/05/20 05:09:53;;;;;;;8.18;4.75;;;;;;;15.68;89.99;102306.56;4981821;28;20229;-74
2023/05/20 05:12:23;;;;;;;10.25;5.15;;;;;;;15.36;87.37;102316.53;4961585;28;20042;-73
2023/05/20 05:14:48;;;;;;;8.00;4.65;;;;;;;15.91;84.56;102313.22;4964459;28;20035;-74
2023/05/20 05:17:14;;;;;;;7.57;4.60;;;;;;;15.39;85.29;102309.16;4978090;28;20082;-71
2023/05/20 05:19:40;;;;;;;6.05;4.75;;;;;;;15.57;86.66;102309.91;4963712;28;20105;-73
2023/05/20 05:22:06;;;;;;;7.60;4.28;;;;;;;15.63;84.94;102303.28;4985148;28;20116;-73
2023/05/20 05:24:33;;;;;;;7.95;4.55;;;;;;;16.14;82.17;102296.50;4984103;28;20067;-72
2023/05/20 05:27:00;;;;;;;11.13;4.70;;;;;;;16.15;81.66;102298.22;4979713;28;20133;-72
2023/05/20 05:29:26;;;;;;;6.65;4.28;;;;;;;16.01;80.79;102295.53;4964138;28;20627;-74
2023/05/20 05:31:51;;;;;;;10.27;4.05;;;;;;;16.01;80.06;102300.91;4980577;28;20814;-71
2023/05/20 05:34:18;;;;;;;8.98;4.47;;;;;;;16.14;80.28;102298.31;4980448;28;20031;-71
2023/05/20 05:36:43;;;;;;;7.50;4.60;;;;;;;15.84;81.73;102298.41;4962189;28;20046;-71
2023/05/20 05:39:09;;;;;;;6.07;4.30;;;;;;;16.00;80.52;102300.03;4967920;28;20058;-74
2023/05/20 05:41:35;;;;;;;8.65;4.65;;;;;;;16.02;81.48;102295.44;4959423;28;20050;-74
2023/05/20 05:44:01;;;;;;;8.68;4.60;;;;;;;16.60;79.40;102303.44;4977985;28;20114;-74
2023/05/20 05:46:27;;;;;;;7.57;4.70;;;;;;;15.93;79.13;102293.34;4968242;28;20045;-74
2023/05/20 05:48:53;;;;;;;14.02;4.50;;;;;;;15.51;81.38;102296.78;4960806;28;20041;-73
2023/05/20 05:51:18;;;;;;;13.40;4.20;;;;;;;15.33;81.89;102306.84;4965133;28;20035;-72
2023/05/20 05:53:45;;;;;;;7.60;4.13;;;;;;;15.38;82.42;102298.53;4958203;28;20043;-73
2023/05/20 05:56:11;;;;;;;7.80;4.65;;;;;;;15.52;83.91;102299.41;4980003;28;20063;-72
2023/05/20 05:58:37;;;;;;;5.88;3.75;;;;;;;15.36;83.17;102297.72;4960777;28;20035;-72
2023/05/20 06:01:06;;;;;;;7.47;3.75;;;;;;;15.78;84.34;102308.59;4966530;28;20039;-72
2023/05/20 06:03:32;;;;;;;8.18;3.95;;;;;;;16.16;81.39;102291.00;4964333;28;20062;-73
2023/05/20 06:05:57;;;;;;;9.77;4.13;;;;;;;16.58;80.45;102292.75;4987088;28;20037;-72
2023/05/20 06:08:23;;;;;;;10.05;4.57;;;;;;;16.27;81.00;102293.91;4961147;28;20039;-74
2023/05/20 06:10:49;;;;;;;10.27;4.28;;;;;;;16.24;80.68;102286.88;4973451;28;20102;-73
2023/05/20 06:13:18;;;;;;;5.95;4.32;;;;;;;15.91;80.35;102292.53;4964529;28;20054;-72
2023/05/20 06:15:45;;;;;;;7.40;3.70;;;;;;;15.99;80.03;102298.31;4970748;28;20653;-72
2023/05/20 06:18:11;;;;;;;5.68;4.13;;;;;;;16.06;79.81;102288.03;4990611;28;21486;-74
2023/05/20 06:20:37;;;;;;;7.53;4.00;;;;;;;16.11;79.20;102285.03;4991921;28;20038;-72
2023/05/20 06:23:06;;;;;;;9.18;4.38;;;;;;;16.25;80.24;102285.91;4992240;28;20602;-72
2023/05/20 06:25:42;;;;;;;7.90;3.65;;;;;;;16.25;79.79;102282.34;4980927;28;20034;-75
2023/05/20 06:28:09;;;;;;;8.02;3.90;;;;;;;16.10;77.72;102277.94;4967744;28;20035;-73
2023/05/20 06:30:35;;;;;;;12.70;4.13;;;;;;;16.11;79.34;102271.59;4985079;28;20031;-74
2023/05/20 06:33:01;;;;;;;13.30;4.20;;;;;;;16.11;80.23;102285.03;4977052;28;20038;-74
2023/05/20 06:35:27;;;;;;;6.90;3.70;;;;;;;16.03;78.03;102277.47;4988205;28;20393;-74
2023/05/20 06:37:54;;;;;;;10.75;4.13;;;;;;;16.30;78.21;102274.84;4974878;28;20098;-74
2023/05/20 06:40:20;;;;;;;6.85;4.13;;;;;;;16.30;78.25;102282.91;4969643;28;20027;-74
2023/05/20 06:42:45;;;;;;;8.23;4.32;;;;;;;16.50;78.62;102268.16;4974546;28;20050;-72
2023/05/20 06:45:12;;;;;;;6.60;3.90;;;;;;;16.29;76.16;102273.09;4970588;28;20086;-71
2023/05/20 06:47:48;;;;;;;7.25;4.10;;;;;;;16.33;76.36;102274.66;4978410;28;20165;-75
2023/05/20 06:50:14;;;;;;;7.82;3.72;;;;;;;16.67;77.64;102269.75;4986331;28;20667;-71
2023/05/20 06:52:41;;;;;;;7.70;3.85;;;;;;;16.36;77.05;102277.13;4985405;28;20038;-72
2023/05/20 06:55:10;;;;;;;6.85;3.85;;;;;;;16.58;nan;102266.69;4963319;28;20066;-72
2023/05/20 06:57:36;;;;;;;8.70;3.92;;;;;;;17.03;75.10;102261.06;4970014;28;20043;-72
2023/05/20 07:00:04;;;;;;;6.43;4.05;;;;;;;17.19;75.08;102258.19;4982075;28;20057;-71
2023/05/20 07:02:39;;;;;;;5.72;4.38;;;;;;;16.90;74.41;102262.84;4975291;28;20051;-71
2023/05/20 07:05:06;;;;;;;8.82;4.43;;;;;;;16.92;72.93;102261.78;4975939;28;20073;-73
2023/05/20 07:07:32;;;;;;;8.50;4.68;;;;;;;16.84;73.28;102272.22;4966325;28;20046;-72
2023/05/20 07:09:59;;;;;;;9.75;4.30;;;;;;;17.25;73.58;102261.31;4965141;28;20036;-72
2023/05/20 07:12:24;;;;;;;7.15;3.67;;;;;;;17.37;74.07;102256.03;4964563;28;20689;-73
2023/05/20 07:14:51;;;;;;;6.20;3.97;;;;;;;17.22;72.34;102266.03;4960631;28;20587;-72
2023/05/20 07:17:17;;;;;;;10.93;4.55;;;;;;;17.01;71.10;102268.38;4965447;28;20027;-73
2023/05/20 07:19:45;;;;;;;7.18;3.95;;;;;;;17.70;72.49;102250.97;4947672;28;20043;-72
2023/05/20 07:22:11;;;;;;;6.97;4.00;;;;;;;17.46;71.76;102250.84;4962948;28;20043;-72
2023/05/20 07:24:53;;;;;;;5.97;3.83;;;;;;;17.74;71.55;102254.34;4963764;28;20043;-73
2023/05/20 07:27:18;;;;;;;7.65;4.28;;;;;;;17.83;70.73;102253.72;4981706;28;20030;-73
2023/05/20 07:29:44;;;;;;;6.30;4.03;;;;;;;17.79;73.91;102254.88;4961734;28;20039;-71
2023/05/20 07:32:11;;;;;;;9.43;5.07;;;;;;;17.94;70.65;102239.44;4957599;28;20040;-72
2023/05/20 07:34:37;;;;;;;10.45;4.47;;;;;;;17.79;71.99;102249.50;4978726;28;20027;-72
2023/05/20 07:37:08;;;;;;;8.93;4.20;;;;;;;17.71;70.99;102241.91;4948270;28;20138;-73
2023/05/20 07:39:35;;;;;;;7.60;4.60;;;;;;;17.66;70.40;102241.38;4966575;28;20203;-73
2023/05/20 07:42:01;;;;;;;7.15;4.72;;;;;;;17.74;70.39;102241.72;4965983;28;20050;-72
2023/05/20 07:44:27;;;;;;;7.35;4.38;;;;;;;17.62;69.92;102231.78;4976754;28;20167;-72
2023/05/20 07:46:57;;;;;;;6.65;4.25;;;;;;;17.74;68.03;102221.97;4966846;28;20054;-72
2023/05/20 07:49:23;;;;;;;8.02;4.20;;;;;;;17.71;68.58;102214.91;4979574;28;20047;-73
2023/05/20 07:51:49;;;;;;;8.43;4.22;;;;;;;17.90;67.72;102232.53;4968920;28;20039;-72
2023/05/20 07:54:15;;;;;;;6.35;4.43;;;;;;;18.05;68.81;102223.31;4981525;28;20965;-71
2023/05/20 07:56:44;;;;;;;10.13;4.20;;;;;;;17.91;65.70;102223.44;4966224;28;20219;-73
2023/05/20 07:59:11;;;;;;;7.97;4.00;;;;;;;18.13;66.68;102226.34;4964419;28;20805;-73
2023/05/20 08:01:42;;;;;;;5.97;3.95;;;;;;;18.06;67.58;102212.41;4965855;28;20043;-72
2023/05/20 08:04:07;;;;;;;7.82;3.95;;;;;;;18.07;66.95;102216.84;4982119;28;20031;-73
2023/05/20 08:06:35;;;;;;;6.25;4.43;;;;;;;17.68;65.24;102214.28;4966904;28;20039;-72
2023/05/20 08:09:03;;;;;;;8.25;4.85;;;;;;;17.97;65.56;102215.78;4963921;28;20034;-74
2023/05/20 08:11:35;;;;;;;;;;;;;;;18.17;65.61;102225.09;4966845;28;20035;-73
2023/05/20 08:14:02;;;;;;;7.22;3.70;;;;;;;18.30;65.32;102217.84;4966568;28;19918;-72
2023/05/20 08:16:32;;;;;;;6.25;4.10;;;;;;;18.35;64.23;102210.25;4967044;28;20827;-73
2023/05/20 08:18:58;;;;;;;8.43;4.40;;;;;;;18.35;66.54;102214.78;4978211;28;20039;-73
2023/05/20 08:21:24;;;;;;;8.93;4.40;;;;;;;18.68;65.43;102221.38;4963982;28;20685;-74
2023/05/20 08:23:50;;;;;;;10.15;4.20;;;;;;;18.25;62.81;102225.41;4968046;28;20049;-74
2023/05/20 08:26:16;;;;;;;9.07;4.50;;;;;;;18.55;63.76;102208.75;4967600;28;20061;-74
2023/05/20 08:28:47;;;;;;;5.03;3.55;;;;;;;18.42;61.52;102207.09;4982644;28;20046;-74
2023/05/20 08:31:16;;;;;;;5.78;3.63;;;;;;;18.08;63.24;102226.66;4955732;28;20138;-74
2023/05/20 08:33:42;;;;;;;8.23;4.05;;;;;;;18.11;61.92;102210.22;4966457;28;20050;-74
2023/05/20 08:36:08;;;;;;;9.00;4.00;;;;;;;18.26;62.99;102213.63;4966815;28;20039;-74
2023/05/20 08:38:35;;;;;;;5.30;3.70;;;;;;;18.19;61.65;102195.31;4980804;28;20637;-74
2023/05/20 08:41:01;;;;;;;5.95;3.30;;;;;;;17.53;63.07;102206.31;4947503;28;20639;-73
2023/05/20 08:43:26;;;;;;;5.65;3.50;;;;;;;18.01;61.95;102200.22;4965546;28;20035;-73
2023/05/20 08:45:53;;;;;;;6.05;3.78;;;;;;;18.54;60.48;102203.47;4964392;28;20791;-73
2023/05/20 08:48:22;;;;;;;11.23;3.30;;;;;;;18.18;60.16;102207.09;4978551;28;20048;-73
2023/05/20 08:50:52;;;;;;;5.97;3.65;;;;;;;18.00;61.08;102204.75;4964504;28;20043;-74
2023/05/20 08:53:20;;;;;;;8.07;3.30;;;;;;;17.85;61.64;102200.47;4964237;28;20039;-73
2023/05/20 08:55:52;;;;;;;7.97;3.92;;;;;;;17.86;60.88;102205.75;4964054;28;20043;-74
2023/05/20 08:58:19;;;;;;;7.22;3.53;;;;;;;18.03;60.78;102190.19;4962435;28;20041;-74
2023/05/20 09:00:45;;;;;;;10.27;3.40;;;;;;;18.18;59.01;102189.06;4963515;28;20050;-74
2023/05/20 09:03:11;;;;;;;6.20;2.60;;;;;;;18.34;59.40;102194.16;4980284;28;20896;-75
2023/05/20 09:05:37;;;;;;;4.15;3.08;;;;;;;18.38;60.84;102210.03;4964698;28;20714;-73
2023/05/20 09:08:08;;;;;;;4.65;3.10;;;;;;;18.31;60.03;102186.28;4967903;28;20226;-73
2023/05/20 09:10:35;;;;;;;8.05;3.17;;;;;;;18.16;59.39;102179.31;4962915;28;20143;-73
2023/05/20 09:13:05;;;;;;;4.95;2.67;;;;;;;18.43;59.66;102165.63;4965294;28;20038;-73
2023/05/20 09:15:32;;;;;;;6.18;2.75;;;;;;;18.43;59.87;102184.53;4964925;28;20046;-74
2023/05/20 09:18:03;;;;;;;7.45;3.47;;;;;;;18.68;60.49;102189.84;4967169;28;20042;-74
2023/05/20 09:20:33;;;;;;;6.20;3.20;;;;;;;18.38;59.69;102182.16;4975111;28;20031;-74
2023/05/20 09:23:01;;;;;;;5.78;2.85;;;;;;;18.25;59.56;102178.66;4959691;28;20148;-72
2023/05/20 09:25:28;;;;;;;6.40;3.30;;;;;;;18.14;59.91;102181.28;4966025;28;20034;-76
2023/05/20 09:27:54;;;;;;;10.63;3.22;;;;;;;18.74;61.11;102175.84;4967175;28;20049;-75
2023/05/20 09:30:20;;;;;;;6.25;3.40;;;;;;;18.11;60.78;102166.16;4978729;28;20046;-75
2023/05/20 09:32:59;;;;;;;6.95;3.28;;;;;;;18.80;59.81;102185.31;4958418;28;20043;-74
2023/05/20 09:35:26;;;;;;;8.98;3.50;;;;;;;18.79;59.52;102183.59;4962966;28;20243;-74
2023/05/20 09:37:57;;;;;;;7.10;3.05;;;;;;;18.78;61.81;102171.06;4964014;28;20034;-73
2023/05/20 09:40:27;;;;;;;12.55;4.00;;;;;;;18.54;61.49;102193.53;4965948;28;20039;-73
2023/05/20 09:42:59;;;;;;;11.52;4.18;;;;;;;18.18;60.17;102189.06;4956824;28;20039;-73
2023/05/20 09:45:25;;;;;;;6.50;4.03;;;;;;;18.55;61.49;102175.50;4976728;28;20562;-75
2023/05/20 09:47:52;;;;;;;4.22;3.28;;;;;;;18.60;60.39;102157.09;4960524;28;20086;-74
2023/05/20 09:50:20;;;;;;;5.70;3.22;;;;;;;18.44;60.11;102176.31;4975819;28;20765;-72
2023/05/20 09:52:48;;;;;;;7.93;4.05;;;;;;;18.51;61.41;102158.63;4953670;28;20039;-72
2023/05/20 09:55:16;;;;;;;7.05;3.25;;;;;;;18.10;59.62;102168.00;4966526;28;20070;-74
2023/05/20 09:57:42;;;;;;;4.65;3.55;;;;;;;18.86;61.53;102149.69;4964786;28;20122;-77
2023/05/20 10:00:09;;;;;;;6.80;3.42;;;;;;;19.35;59.46;102153.97;4964416;28;20046;-75
2023/05/20 10:03:00;;;;;;;16.48;3.45;;;;;;;18.67;58.66;102149.34;4961708;28;20113;-74
2023/05/20 10:05:32;;;;;;;6.53;3.17;;;;;;;18.67;61.32;102165.56;4959660;28;20886;-73
2023/05/20 10:08:26;;;;;;;4.70;3.05;;;;;;;19.15;59.79;102150.13;4977784;28;20042;-73
2023/05/20 10:11:11;;;;;;;9.00;3.10;;;;;;;19.05;58.98;102146.44;4966172;28;20137;-73
2023/05/20 10:13:58;;;;;;;5.90;2.88;;;;;;;19.37;58.82;102133.06;4963687;28;20042;-73
2023/05/20 10:16:47;;;;;;;5.80;2.85;;;;;;;19.00;58.61;102130.56;4962972;28;20137;-73
2023/05/20 10:19:26;;;;;;;4.88;3.25;;;;;;;18.76;58.27;102143.28;4970835;28;20035;-74
2023/05/20 10:22:08;;;;;;;10.25;2.70;;;;;;;19.64;60.70;102138.13;4958068;28;20604;-74
2023/05/20 10:24:41;;;;;;;;;;;;;;;19.61;61.49;102133.81;4966702;28;20118;-72
2023/05/20 10:27:14;;;;;;;3.30;2.50;;;;;;;19.37;58.47;102123.09;4962517;28;19925;-72
2023/05/20 10:29:42;;;;;;;3.63;2.47;;;;;;;19.23;58.45;102122.47;4961809;28;20046;-73
2023/05/20 10:32:10;;;;;;;4.63;2.95;;;;;;;19.28;58.83;102123.00;4968322;28;20142;-71
2023/05/20 10:34:57;;;;;;;6.60;2.75;;;;;;;19.17;58.72;102114.84;4963327;28;20039;-74
2023/05/20 10:37:30;;;;;;;9.40;3.20;;;;;;;19.17;57.75;102118.41;4963806;28;20161;-73
2023/05/20 10:40:09;;;;;;;3.75;2.65;;;;;;;19.56;57.98;102118.91;4963975;28;20031;-72
2023/05/20 10:42:37;;;;;;;4.53;2.70;;;;;;;19.21;58.48;102114.47;4976157;28;20404;-72
2023/05/20 10:45:07;;;;;;;8.70;3.60;;;;;;;19.33;57.70;102113.53;4979581;28;20051;-73
2023/05/20 10:47:53;;;;;;;4.82;2.90;;;;;;;19.63;57.89;102114.78;4964849;28;20983;-73
2023/05/20 10:50:35;;;;;;;5.88;3.22;;;;;;;19.61;58.87;102095.94;4971457;28;21183;-73
2023/05/20 10:53:09;;;;;;;3.35;2.45;;;;;;;19.80;57.63;102108.81;4940628;28;20255;-73
2023/05/20 10:55:37;;;;;;;4.03;2.70;;;;;;;19.25;58.38;102107.84;4964693;28;20042;-73
2023/05/20 10:58:09;;;;;;;7.55;2.67;;;;;;;19.17;58.09;102091.38;4972934;28;20027;-74
2023/05/20 11:00:36;;;;;;;5.05;2.60;;;;;;;19.37;59.45;102112.25;4958717;28;20150;-72
2023/05/20 11:03:06;;;;;;;6.00;2.75;;;;;;;19.31;58.50;102104.66;4963033;28;20229;-74
2023/05/20 11:05:35;;;;;;;5.30;2.92;;;;;;;19.20;58.68;102106.50;4968382;28;20481;-74
2023/05/20 11:08:03;;;;;;;5.22;2.58;;;;;;;19.23;58.07;102104.44;4967535;28;20522;-75
2023/05/20 11:10:36;;;;;;;5.03;2.63;;;;;;;19.85;55.95;102094.91;4964861;28;20038;-72
2023/05/20 11:13:03;;;;;;;9.93;2.85;;;;;;;19.35;57.56;102111.53;4968295;28;20035;-71
2023/05/20 11:15:36;;;;;;;25.35;2.85;;;;;;;19.18;57.97;102112.03;4970672;28;20035;-72
2023/05/20 11:18:07;;;;;;;9.07;3.30;;;;;;;19.33;58.49;102108.13;4957734;28;20138;-72
2023/05/20 11:20:38;;;;;;;8.57;2.67;;;;;;;19.23;58.41;102103.53;4972898;28;20031;-73
2023/05/20 11:23:12;;;;;;;3.45;2.40;;;;;;;19.83;57.47;102091.44;4967941;28;20039;-73